Time;durP1;ratioP1;P1;durP2;ratioP2;P2;SDS_P1;SDS_P2;PMS_P1;PMS_P2;Temp;Humidity;BMP_temperature;BMP_pressure;BME280_temperature;BME280_humidity;BME280_pressure;Samples;Min_cycle;Max_cycle;Signal;HPM_P1;HPM_P2
2022/10/26 00:00:33;;;;;;;2.87;2.10;;;;;;;11.53;95.74;100547.19;5012140;28;20232;-78
2022/10/26 00:02:59;;;;;;;4.77;2.50;;;;;;;11.55;96.24;100552.34;5012945;28;20214;-78
2022/10/26 00:05:26;;;;;;;4.27;2.27;;;;;;;11.54;96.09;100542.81;5012549;28;20203;-78
2022/10/26 00:07:52;;;;;;;3.73;2.20;;;;;;;11.54;96.12;100542.81;5012403;28;20227;-78
2022/10/26 00:10:20;;;;;;;9.97;2.57;;;;;;;11.55;97.61;100517.50;5012345;28;20234;-79
2022/10/26 00:12:49;;;;;;;3.47;2.23;;;;;;;11.57;97.85;100507.88;5013100;28;20307;-78
2022/10/26 00:15:16;;;;;;;6.03;2.53;;;;;;;11.59;97.76;100513.94;5012759;28;20230;-78
2022/10/26 00:17:44;;;;;;;3.17;2.20;;;;;;;11.59;97.39;100513.94;5012872;28;20213;-78
2022/10/26 00:20:11;;;;;;;4.53;2.00;;;;;;;11.65;97.19;100519.03;5012492;28;20227;-78
2022/10/26 00:22:37;;;;;;;7.00;2.80;;;;;;;11.53;96.44;100541.94;5011679;28;20211;-78
2022/10/26 00:25:05;;;;;;;5.57;2.63;;;;;;;11.50;96.39;100552.47;5012192;28;20215;-78
2022/10/26 00:27:33;;;;;;;4.53;2.70;;;;;;;11.47;96.08;100547.28;5015201;28;20210;-77
2022/10/26 00:29:59;;;;;;;3.20;2.37;;;;;;;11.48;96.05;100567.31;5016630;28;20237;-78
2022/10/26 00:32:26;;;;;;;6.20;2.27;;;;;;;11.50;95.83;100569.91;5016643;28;20214;-78
2022/10/26 00:34:53;;;;;;;3.53;2.37;;;;;;;11.52;95.87;100579.44;5016300;28;20207;-78
2022/10/26 00:37:20;;;;;;;4.20;2.70;;;;;;;11.47;95.75;100581.25;5016087;28;20234;-79
2022/10/26 00:39:47;;;;;;;4.57;2.27;;;;;;;11.48;95.67;100582.16;5015853;28;20230;-77
2022/10/26 00:42:18;;;;;;;2.40;1.80;;;;;;;11.47;96.01;100573.41;5016842;28;20234;-78
2022/10/26 00:45:04;;;;;;;7.10;2.13;;;;;;;11.50;96.06;100572.53;5016161;28;20212;-78
2022/10/26 00:47:40;;;;;;;8.27;2.10;;;;;;;11.46;96.57;100557.78;5015977;28;20712;-77
2022/10/26 00:50:11;;;;;;;3.50;1.43;;;;;;;11.45;96.51;100545.59;5015814;28;20253;-78
2022/10/26 00:52:38;;;;;;;2.90;1.80;;;;;;;11.47;96.60;100544.66;5015694;28;20215;-78
2022/10/26 00:55:07;;;;;;;5.27;2.27;;;;;;;11.50;96.45;100539.38;5015614;28;20198;-77
2022/10/26 00:57:34;;;;;;;5.20;1.90;;;;;;;11.49;96.09;100549.88;5015994;28;20216;-78
2022/10/26 01:00:01;;;;;;;4.57;2.00;;;;;;;11.47;96.55;100546.44;5013955;28;20241;-78
2022/10/26 01:02:28;;;;;;;3.00;1.43;;;;;;;11.48;95.92;100550.78;5015415;28;20238;-78
2022/10/26 01:04:55;;;;;;;6.80;2.20;;;;;;;11.43;96.71;100545.63;5015126;28;20207;-78
2022/10/26 01:07:25;;;;;;;6.50;2.37;;;;;;;11.44;95.83;100555.19;5015991;28;20319;-78
2022/10/26 01:09:53;;;;;;;3.07;2.40;;;;;;;11.43;95.51;100568.28;5014704;28;20242;-75
2022/10/26 01:12:19;;;;;;;3.90;2.80;;;;;;;11.39;95.07;100587.53;5016138;28;20577;-78
2022/10/26 01:14:46;;;;;;;5.63;3.07;;;;;;;11.30;94.76;100596.44;5015631;28;20211;-78
2022/10/26 01:17:28;;;;;;;6.87;2.57;;;;;;;11.26;94.34;100602.63;5014922;28;20214;-78
2022/10/26 01:20:32;;;;;;;7.77;3.03;;;;;;;11.18;94.05;100621.06;5013935;28;20257;-77
2022/10/26 01:23:07;;;;;;;4.70;2.80;;;;;;;11.12;94.85;100600.28;5014654;28;20214;-78
2022/10/26 01:25:45;;;;;;;2.83;2.43;;;;;;;11.11;94.76;100602.00;5015499;28;20195;-78
2022/10/26 01:28:24;;;;;;;4.73;2.20;;;;;;;11.11;95.04;100582.84;5015352;28;20677;-78
2022/10/26 01:30:53;;;;;;;6.07;1.97;;;;;;;11.10;95.82;100566.31;5014908;28;20604;-78
2022/10/26 01:33:28;;;;;;;6.13;2.10;;;;;;;11.06;96.72;100546.38;5015247;28;20207;-78
2022/10/26 01:36:03;;;;;;;5.23;2.23;;;;;;;11.10;97.05;100527.13;5015525;28;20230;-78
2022/10/26 01:38:35;;;;;;;3.40;2.07;;;;;;;11.11;97.62;100507.94;5014180;28;20211;-79
2022/10/26 01:41:08;;;;;;;3.47;1.63;;;;;;;11.17;98.40;100490.44;5014445;28;20230;-79
2022/10/26 01:43:37;;;;;;;4.40;1.80;;;;;;;11.18;98.62;100482.56;5015792;28;20261;-78
2022/10/26 01:46:07;;;;;;;7.87;1.83;;;;;;;11.23;98.81;100469.41;5015168;28;20210;-78
2022/10/26 01:48:35;;;;;;;3.67;2.33;;;;;;;11.21;98.63;100465.97;5013103;28;20240;-77
2022/10/26 01:51:03;;;;;;;6.67;1.67;;;;;;;11.29;98.46;100479.72;5013409;28;20238;-78
2022/10/26 01:53:30;;;;;;;3.87;1.90;;;;;;;11.31;98.11;100489.25;5013407;28;20244;-78
2022/10/26 01:55:57;;;;;;;5.23;2.97;;;;;;;11.33;97.25;100502.28;5012884;28;20220;-79
2022/10/26 01:59:00;;;;;;;5.17;3.30;;;;;;;11.39;96.60;100516.97;5013805;28;20203;-79
2022/10/26 02:01:45;;;;;;;3.37;3.03;;;;;;;11.37;96.18;100542.28;5014509;28;20712;-77
2022/10/26 02:04:28;;;;;;;4.50;3.77;;;;;;;11.31;95.22;100549.34;5013498;28;20215;-78
2022/10/26 02:07:02;;;;;;;8.27;3.67;;;;;;;11.30;95.53;100550.25;5014210;28;20207;-78
2022/10/26 02:09:38;;;;;;;4.77;3.43;;;;;;;11.29;96.45;100537.22;5014086;28;20212;-78
2022/10/26 02:12:13;;;;;;;3.87;3.40;;;;;;;11.25;96.82;100522.50;5012847;28;20238;-78
2022/10/26 02:14:48;;;;;;;3.47;2.70;;;;;;;11.25;97.87;100505.06;5013563;28;20214;-78
2022/10/26 02:17:21;;;;;;;3.67;2.57;;;;;;;11.28;98.55;100488.47;5014412;28;20199;-79
2022/10/26 02:19:55;;;;;;;5.30;2.90;;;;;;;11.36;99.70;100449.09;5014441;28;20239;-78
2022/10/26 02:22:26;;;;;;;8.53;3.00;;;;;;;11.35;99.23;100450.00;5013839;28;20321;-78
2022/10/26 02:24:54;;;;;;;4.70;2.90;;;;;;;11.38;99.67;100429.88;5013541;28;20210;-78
2022/10/26 02:27:24;;;;;;;2.60;1.80;;;;;;;11.38;99.30;100437.72;5012483;28;20218;-78
2022/10/26 02:29:52;;;;;;;2.13;2.03;;;;;;;11.37;98.94;100446.44;5012696;28;20713;-76
2022/10/26 02:32:23;;;;;;;4.13;2.20;;;;;;;11.43;98.66;100451.53;5013458;28;20224;-78
2022/10/26 02:34:52;;;;;;;4.80;2.63;;;;;;;11.47;98.26;100445.34;5013562;28;20211;-80
2022/10/26 02:37:22;;;;;;;5.23;2.50;;;;;;;11.44;99.32;100434.13;5012661;28;20643;-79
2022/10/26 02:39:50;;;;;;;4.27;2.20;;;;;;;11.44;99.66;100419.28;5012860;28;20223;-78
2022/10/26 02:42:18;;;;;;;10.17;2.53;;;;;;;11.45;99.77;100413.16;5012673;28;20211;-79
2022/10/26 02:44:49;;;;;;;3.97;2.13;;;;;;;11.47;100.00;100418.34;5012573;28;20207;-76
2022/10/26 02:47:17;;;;;;;2.50;2.30;;;;;;;11.42;100.00;100405.38;5012341;28;20207;-78
2022/10/26 02:49:45;;;;;;;7.13;2.63;;;;;;;11.44;100.00;100402.75;5011224;28;20244;-78
2022/10/26 02:52:18;;;;;;;2.30;2.20;;;;;;;11.48;100.00;100392.19;5011874;28;20211;-78
2022/10/26 02:54:52;;;;;;;3.37;2.53;;;;;;;11.48;100.00;100386.94;5013547;28;20660;-78
2022/10/26 02:57:23;;;;;;;3.10;2.70;;;;;;;11.50;100.00;100389.53;5012602;28;20187;-78
2022/10/26 02:59:50;;;;;;;2.67;2.43;;;;;;;11.54;100.00;100383.34;5013635;28;20234;-78
2022/10/26 03:02:19;;;;;;;3.00;2.50;;;;;;;11.51;100.00;100373.78;5011897;28;20203;-78
2022/10/26 03:04:49;;;;;;;5.43;2.67;;;;;;;11.52;100.00;100372.91;5012979;28;20214;-78
2022/10/26 03:07:20;;;;;;;5.87;2.63;;;;;;;11.58;100.00;100368.44;5012838;28;20222;-78
2022/10/26 03:09:47;;;;;;;3.73;3.00;;;;;;;11.56;100.00;100381.53;5012399;28;20231;-77
2022/10/26 03:12:13;;;;;;;6.17;3.37;;;;;;;11.64;100.00;100391.81;5013080;28;20203;-78
2022/10/26 03:14:40;;;;;;;2.63;2.30;;;;;;;11.71;100.00;100391.63;5011740;28;20221;-78
2022/10/26 03:17:06;;;;;;;3.20;2.57;;;;;;;11.69;100.00;100393.44;5011766;28;20210;-77
2022/10/26 03:19:33;;;;;;;8.33;2.83;;;;;;;11.73;100.00;100396.81;5011522;28;20876;-78
2022/10/26 03:22:01;;;;;;;2.33;2.10;;;;;;;11.73;100.00;100407.25;5010808;28;20221;-77
2022/10/26 03:24:27;;;;;;;4.73;2.70;;;;;;;11.65;100.00;100399.59;5013347;28;20206;-77
2022/10/26 03:26:54;;;;;;;2.80;2.17;;;;;;;11.72;100.00;100397.72;5012822;28;20208;-78
2022/10/26 03:29:20;;;;;;;3.43;2.40;;;;;;;11.72;100.00;100395.09;5012767;28;20243;-77
2022/10/26 03:31:47;;;;;;;5.43;2.30;;;;;;;11.76;100.00;100407.22;5011040;28;20203;-77
2022/10/26 03:34:14;;;;;;;3.33;2.37;;;;;;;11.75;99.56;100409.84;5012083;28;20705;-78
2022/10/26 03:36:40;;;;;;;4.20;2.37;;;;;;;11.75;99.67;100412.47;5012044;28;20628;-78
2022/10/26 03:39:08;;;;;;;5.87;3.00;;;;;;;11.80;99.06;100418.47;5011029;28;20208;-77
2022/10/26 03:41:34;;;;;;;2.93;2.00;;;;;;;11.74;98.90;100424.69;5010179;28;20800;-77
2022/10/26 03:44:01;;;;;;;2.47;2.20;;;;;;;11.78;98.52;100433.31;5011729;28;20211;-77
2022/10/26 03:46:27;;;;;;;5.60;2.23;;;;;;;11.77;98.34;100439.44;5010326;28;20207;-77
2022/10/26 03:48:54;;;;;;;5.30;2.10;;;;;;;11.76;98.69;100443.81;5012259;28;20230;-78
2022/10/26 03:51:20;;;;;;;6.17;2.43;;;;;;;11.82;97.88;100451.50;5010206;28;20238;-77
2022/10/26 03:53:47;;;;;;;4.80;2.00;;;;;;;11.82;97.95;100459.34;5011747;28;20218;-77
2022/10/26 03:56:14;;;;;;;2.00;1.80;;;;;;;11.81;97.34;100465.47;5011390;28;20214;-77
2022/10/26 03:58:41;;;;;;;3.80;2.00;;;;;;;11.78;97.17;100472.56;5010585;28;20206;-77
2022/10/26 04:01:07;;;;;;;4.10;2.37;;;;;;;11.76;97.41;100475.19;5010133;28;20227;-77
2022/10/26 04:03:34;;;;;;;5.03;2.23;;;;;;;11.76;97.05;100477.81;5010839;28;20228;-77
2022/10/26 04:06:01;;;;;;;4.43;2.20;;;;;;;11.76;96.57;100480.44;5012062;28;20216;-76
2022/10/26 04:08:27;;;;;;;4.10;2.50;;;;;;;11.75;96.71;100488.31;5011717;28;20211;-78
2022/10/26 04:10:53;;;;;;;4.77;2.33;;;;;;;11.72;97.32;100471.78;5010485;28;20235;-78
2022/10/26 04:13:21;;;;;;;5.87;2.40;;;;;;;11.72;97.24;100468.31;5011082;28;20215;-77
2022/10/26 04:15:48;;;;;;;4.40;2.37;;;;;;;11.75;97.21;100468.22;5012242;28;20213;-77
2022/10/26 04:18:14;;;;;;;6.50;2.60;;;;;;;11.76;97.18;100464.75;5011528;28;20222;-78
2022/10/26 04:20:41;;;;;;;8.50;2.50;;;;;;;11.77;97.17;100462.97;5011350;28;20624;-77
2022/10/26 04:23:11;;;;;;;4.03;2.23;;;;;;;11.72;97.25;100460.47;5010894;28;20697;-79
2022/10/26 04:25:38;;;;;;;4.33;2.40;;;;;;;11.70;96.89;100464.88;5012305;28;20207;-77
2022/10/26 04:28:06;;;;;;;2.20;2.00;;;;;;;11.66;97.32;100466.69;5013126;28;20207;-78
2022/10/26 04:30:35;;;;;;;4.80;2.07;;;;;;;11.63;96.99;100464.16;5011195;28;20230;-79
2022/10/26 04:33:02;;;;;;;3.37;2.17;;;;;;;11.67;96.91;100473.66;5012239;28;20717;-79
2022/10/26 04:35:28;;;;;;;2.47;2.07;;;;;;;11.69;96.46;100476.22;5028166;28;20207;-80
2022/10/26 04:37:57;;;;;;;7.90;2.50;;;;;;;11.69;96.48;100476.22;5035501;28;20699;-79
2022/10/26 04:40:24;;;;;;;2.90;2.60;;;;;;;11.68;96.29;100483.22;5033401;28;20227;-78
2022/10/26 04:42:50;;;;;;;1.83;1.70;;;;;;;11.49;96.86;100481.91;5033051;28;20213;-78
2022/10/26 04:45:17;;;;;;;3.27;1.80;;;;;;;11.59;96.57;100470.34;5033950;28;20207;-79
2022/10/26 04:47:45;;;;;;;2.17;1.97;;;;;;;11.55;97.26;100460.00;5033611;28;20206;-79
2022/10/26 04:50:12;;;;;;;6.50;2.03;;;;;;;11.56;97.43;100459.13;5033286;28;20230;-78
2022/10/26 04:52:39;;;;;;;2.63;1.87;;;;;;;11.52;97.33;100456.56;5033793;28;20226;-80
2022/10/26 04:55:07;;;;;;;3.17;2.27;;;;;;;11.55;97.73;100450.38;5033960;28;20214;-80
2022/10/26 04:57:34;;;;;;;2.40;1.60;;;;;;;11.64;97.02;100455.41;5034532;28;20209;-78
2022/10/26 05:00:01;;;;;;;3.20;1.80;;;;;;;11.66;96.36;100473.69;5034016;28;20223;-80
2022/10/26 05:02:29;;;;;;;3.03;1.80;;;;;;;11.61;96.50;100478.16;5033462;28;20200;-80
2022/10/26 05:04:56;;;;;;;3.83;2.17;;;;;;;11.53;96.71;100465.25;5033663;28;20681;-80
2022/10/26 05:07:23;;;;;;;2.73;1.73;;;;;;;11.54;96.61;100469.59;5034589;28;20207;-80
2022/10/26 05:09:49;;;;;;;2.73;1.90;;;;;;;11.50;97.02;100473.19;5032840;28;20680;-79
2022/10/26 05:12:16;;;;;;;2.63;1.50;;;;;;;11.31;97.95;100454.41;5035091;28;20210;-80
2022/10/26 05:14:42;;;;;;;4.13;2.17;;;;;;;11.45;97.98;100443.66;5038476;28;20212;-80
2022/10/26 05:17:09;;;;;;;2.27;1.50;;;;;;;11.42;97.42;100456.81;5044467;28;20206;-80
2022/10/26 05:19:35;;;;;;;3.13;1.77;;;;;;;11.36;97.31;100452.56;5037678;28;20220;-80
2022/10/26 05:22:03;;;;;;;2.80;1.80;;;;;;;11.44;97.35;100449.81;5037049;28;20221;-80
2022/10/26 05:24:29;;;;;;;3.63;1.90;;;;;;;11.43;97.28;100461.13;5037866;28;20210;-81
2022/10/26 05:26:56;;;;;;;8.50;2.47;;;;;;;11.46;97.00;100455.84;5037648;28;20210;-80
2022/10/26 05:29:22;;;;;;;4.30;2.07;;;;;;;11.44;96.79;100461.09;5037406;28;20207;-80
2022/10/26 05:31:49;;;;;;;3.63;1.80;;;;;;;11.46;97.08;100461.94;5036885;28;20636;-81
2022/10/26 05:34:15;;;;;;;4.13;1.93;;;;;;;11.45;96.79;100470.66;5037150;28;20583;-80
2022/10/26 05:36:41;;;;;;;3.40;1.60;;;;;;;11.45;96.20;100475.03;5037642;28;20233;-79
2022/10/26 05:39:09;;;;;;;3.47;1.70;;;;;;;11.45;96.21;100477.63;5036500;28;20678;-79
2022/10/26 05:41:36;;;;;;;3.37;1.50;;;;;;;11.41;96.19;100487.28;5037259;28;20234;-80
2022/10/26 05:44:02;;;;;;;2.90;1.50;;;;;;;11.40;95.71;100482.13;5038147;28;20592;-80
2022/10/26 05:46:29;;;;;;;2.60;1.90;;;;;;;11.39;96.03;100486.47;5037724;28;20214;-80
2022/10/26 05:48:55;;;;;;;3.57;1.50;;;;;;;11.38;95.78;100492.59;5036981;28;20611;-80
2022/10/26 05:51:21;;;;;;;2.53;1.70;;;;;;;11.41;95.60;100496.91;5036345;28;20234;-80
2022/10/26 05:53:48;;;;;;;1.90;1.77;;;;;;;11.42;95.21;100511.69;5037094;28;20696;-80
2022/10/26 05:56:20;;;;;;;3.27;1.57;;;;;;;11.37;94.89;100518.75;5037357;28;20206;-80
2022/10/26 05:58:47;;;;;;;3.13;1.70;;;;;;;11.32;95.00;100521.47;5037308;28;20248;-80
2022/10/26 06:01:25;;;;;;;4.77;1.90;;;;;;;11.31;95.06;100525.81;5036979;28;20229;-80
2022/10/26 06:04:07;;;;;;;3.37;2.47;;;;;;;11.27;94.62;100529.41;5037722;28;20274;-80
2022/10/26 06:06:39;;;;;;;2.90;1.40;;;;;;;11.21;94.68;100520.84;5036931;28;20607;-80
2022/10/26 06:09:08;;;;;;;3.50;1.80;;;;;;;11.23;94.75;100524.28;5036945;28;20217;-80
2022/10/26 06:11:36;;;;;;;3.33;1.60;;;;;;;11.18;94.57;100529.59;5035477;28;20230;-81
2022/10/26 06:14:03;;;;;;;2.60;1.40;;;;;;;11.16;94.60;100530.50;5035796;28;20206;-79
2022/10/26 06:16:40;;;;;;;6.80;2.10;;;;;;;11.13;94.69;100531.44;5035719;28;20202;-79
2022/10/26 06:19:20;;;;;;;3.27;1.60;;;;;;;11.10;94.42;100527.13;5035762;28;20206;-80
2022/10/26 06:21:58;;;;;;;3.67;2.20;;;;;;;11.12;95.24;100517.53;5035826;28;20576;-79
2022/10/26 06:24:35;;;;;;;2.40;1.57;;;;;;;11.12;94.86;100524.50;5035979;28;20715;-79
2022/10/26 06:27:12;;;;;;;2.70;1.70;;;;;;;11.11;94.87;100525.38;5034928;28;20206;-79
2022/10/26 06:29:48;;;;;;;2.30;1.20;;;;;;;11.08;94.62;100528.91;5034999;28;20226;-80
2022/10/26 06:32:15;;;;;;;2.93;1.70;;;;;;;11.06;94.54;100535.03;5034851;28;20211;-78
2022/10/26 06:34:46;;;;;;;5.23;1.70;;;;;;;11.05;94.85;100523.75;5034607;28;20296;-79
2022/10/26 06:37:13;;;;;;;1.67;1.53;;;;;;;10.98;95.37;100516.94;5034692;28;20206;-80
2022/10/26 06:39:43;;;;;;;3.80;2.17;;;;;;;10.98;96.22;100488.22;5035133;28;20230;-79
2022/10/26 06:42:11;;;;;;;3.50;1.70;;;;;;;10.96;96.37;100476.94;5034707;28;20237;-80
2022/10/26 06:44:38;;;;;;;3.20;1.70;;;;;;;11.01;96.58;100474.22;5035433;28;20202;-80
2022/10/26 06:47:07;;;;;;;5.20;1.60;;;;;;;10.97;96.94;100470.81;5035783;28;20202;-80
2022/10/26 06:49:37;;;;;;;3.13;1.53;;;;;;;11.03;97.22;100467.22;5035571;28;20202;-79
2022/10/26 06:52:11;;;;;;;5.23;1.60;;;;;;;11.10;97.33;100463.59;5034949;28;20222;-79
2022/10/26 06:54:47;;;;;;;3.27;1.93;;;;;;;11.14;97.59;100452.19;5035225;28;20224;-79
2022/10/26 06:57:16;;;;;;;2.63;1.60;;;;;;;11.20;97.58;100459.00;5035108;28;20224;-79
2022/10/26 06:59:46;;;;;;;5.77;1.80;;;;;;;11.24;97.88;100456.31;5034696;28;20230;-80
2022/10/26 07:02:13;;;;;;;5.13;1.63;;;;;;;11.19;98.53;100441.63;5035094;28;20213;-80
2022/10/26 07:04:40;;;;;;;6.27;2.00;;;;;;;11.24;98.98;100427.56;5034530;28;20202;-77
2022/10/26 07:07:06;;;;;;;2.40;1.77;;;;;;;11.33;98.81;100429.09;5034746;28;20207;-80
2022/10/26 07:09:33;;;;;;;9.17;2.20;;;;;;;11.36;99.10;100438.63;5035145;28;20214;-80
2022/10/26 07:11:59;;;;;;;2.60;1.67;;;;;;;11.38;99.96;100419.44;5034470;28;20732;-80
2022/10/26 07:14:27;;;;;;;6.03;1.80;;;;;;;11.46;99.94;100419.25;5034423;28;20218;-79
2022/10/26 07:16:55;;;;;;;2.70;1.93;;;;;;;11.53;100.00;100405.13;5034593;28;20206;-80
2022/10/26 07:19:22;;;;;;;3.47;1.80;;;;;;;11.63;100.00;100403.16;5034780;28;20211;-79
2022/10/26 07:21:48;;;;;;;2.47;1.70;;;;;;;11.72;99.54;100422.09;5034135;28;20203;-79
2022/10/26 07:24:15;;;;;;;5.47;1.90;;;;;;;11.86;99.04;100442.69;5033871;28;20211;-78
2022/10/26 07:26:41;;;;;;;5.27;2.00;;;;;;;11.99;99.12;100445.91;5034269;28;20214;-79
2022/10/26 07:29:08;;;;;;;2.67;1.77;;;;;;;12.05;99.13;100448.38;5034480;28;20210;-79
2022/10/26 07:31:35;;;;;;;3.67;2.20;;;;;;;12.10;98.35;100463.94;5033390;28;20239;-78
2022/10/26 07:34:02;;;;;;;8.07;1.43;;;;;;;12.18;97.09;100489.94;5033901;28;20207;-79
2022/10/26 07:36:29;;;;;;;9.93;2.00;;;;;;;12.26;97.52;100498.44;5033609;28;20264;-80
2022/10/26 07:38:55;;;;;;;6.20;1.70;;;;;;;12.32;98.16;100491.28;5033549;28;20248;-79
2022/10/26 07:41:21;;;;;;;7.33;1.53;;;;;;;12.43;98.35;100484.94;5033978;28;20222;-80
2022/10/26 07:43:49;;;;;;;4.23;1.70;;;;;;;12.49;98.73;100476.94;5033967;28;20704;-79
2022/10/26 07:46:16;;;;;;;2.13;1.60;;;;;;;12.48;99.21;100473.44;5033634;28;20226;-78
2022/10/26 07:48:44;;;;;;;1.80;1.40;;;;;;;12.59;99.87;100462.69;5033990;28;20204;-79
2022/10/26 07:51:10;;;;;;;4.43;2.03;;;;;;;12.56;99.94;100446.19;5032987;28;20241;-79
2022/10/26 07:53:37;;;;;;;3.40;1.50;;;;;;;12.58;99.96;100447.88;5033185;28;20210;-79
2022/10/26 07:56:03;;;;;;;3.97;1.60;;;;;;;12.63;98.97;100463.47;5034256;28;20207;-79
2022/10/26 07:58:30;;;;;;;3.23;1.50;;;;;;;12.68;98.00;100495.63;5033606;28;20209;-79
2022/10/26 08:00:56;;;;;;;3.27;1.40;;;;;;;12.77;97.33;100510.25;5033499;28;20226;-79
2022/10/26 08:03:23;;;;;;;3.43;1.50;;;;;;;12.79;98.63;100492.72;5033672;28;20207;-79
2022/10/26 08:05:54;;;;;;;5.80;1.40;;;;;;;12.90;98.53;100488.03;5033490;28;20217;-79
2022/10/26 08:08:21;;;;;;;5.23;1.60;;;;;;;12.95;98.51;100486.16;5034708;28;20208;-80
2022/10/26 08:10:47;;;;;;;4.20;2.90;;;;;;;13.02;98.70;100485.09;5033660;28;20651;-80
2022/10/26 08:13:14;;;;;;;5.30;2.10;;;;;;;13.09;98.67;100488.38;5033992;28;20211;-79
2022/10/26 08:15:41;;;;;;;4.97;3.07;;;;;;;13.10;97.92;100503.19;5034521;28;20207;-79
2022/10/26 08:18:07;;;;;;;5.13;2.90;;;;;;;13.09;97.51;100511.97;5034014;28;20208;-80
2022/10/26 08:20:34;;;;;;;2.80;2.60;;;;;;;13.12;97.60;100522.34;5035013;28;20234;-79
2022/10/26 08:23:04;;;;;;;3.47;2.73;;;;;;;13.09;97.48;100531.16;5034807;28;20219;-79
2022/10/26 08:25:31;;;;;;;4.73;3.23;;;;;;;13.09;96.90;100546.88;5034658;28;20230;-79
2022/10/26 08:28:00;;;;;;;5.03;3.00;;;;;;;13.00;96.94;100552.41;5035215;28;20209;-79
2022/10/26 08:30:27;;;;;;;5.00;3.10;;;;;;;13.03;97.12;100549.69;5034718;28;20612;-80
2022/10/26 08:32:58;;;;;;;4.37;3.00;;;;;;;13.03;97.12;100540.97;5034503;28;20682;-79
2022/10/26 08:35:25;;;;;;;4.93;3.50;;;;;;;12.99;96.87;100528.84;5035092;28;20210;-79
2022/10/26 08:37:52;;;;;;;3.73;3.30;;;;;;;12.98;97.90;100516.63;5034883;28;20210;-79
2022/10/26 08:40:24;;;;;;;3.20;2.80;;;;;;;13.02;98.16;100495.56;5034539;28;20231;-79
2022/10/26 08:42:55;;;;;;;3.70;3.40;;;;;;;13.03;98.93;100484.16;5035833;28;20211;-79
2022/10/26 08:45:28;;;;;;;4.47;3.47;;;;;;;13.07;99.07;100474.47;5035024;28;20212;-80
2022/10/26 08:48:00;;;;;;;3.33;2.80;;;;;;;13.14;99.00;100473.41;5036734;28;20206;-78
2022/10/26 08:50:31;;;;;;;3.50;3.00;;;;;;;13.18;99.20;100463.66;5037341;28;20236;-78
2022/10/26 08:53:03;;;;;;;3.97;2.90;;;;;;;13.19;99.53;100461.00;5037126;28;20211;-80
2022/10/26 08:55:39;;;;;;;4.57;2.67;;;;;;;13.25;99.80;100452.09;5038308;28;20681;-80
2022/10/26 08:58:13;;;;;;;3.80;2.60;;;;;;;13.26;99.82;100454.69;5039566;28;20207;-80
2022/10/26 09:00:40;;;;;;;4.10;3.70;;;;;;;13.35;99.51;100458.81;5038764;28;20227;-80
2022/10/26 09:03:13;;;;;;;4.43;3.50;;;;;;;13.35;98.93;100466.69;5039832;28;20218;-80
2022/10/26 09:05:49;;;;;;;3.33;3.00;;;;;;;13.36;98.98;100460.53;5040090;28;20210;-79
2022/10/26 09:08:26;;;;;;;2.50;1.43;;;;;;;13.42;97.55;100478.72;5039311;28;20211;-79
2022/10/26 09:11:05;;;;;;;3.07;1.83;;;;;;;13.46;96.33;100517.03;5039694;28;20301;-78
2022/10/26 09:13:40;;;;;;;2.73;2.27;;;;;;;13.53;97.48;100493.25;5039807;28;20207;-80
2022/10/26 09:16:15;;;;;;;2.53;1.30;;;;;;;13.59;94.82;100545.53;5037933;28;20206;-78
2022/10/26 09:18:53;;;;;;;5.33;1.47;;;;;;;13.58;93.14;100576.16;5036999;28;20211;-79
2022/10/26 09:21:31;;;;;;;1.77;1.60;;;;;;;13.69;91.99;100630.91;5037341;28;20241;-79
2022/10/26 09:24:04;;;;;;;1.80;1.20;;;;;;;13.69;89.75;100699.97;5038856;28;20207;-78
2022/10/26 09:26:38;;;;;;;1.93;1.30;;;;;;;13.79;88.36;100747.81;5040051;28;20211;-80
2022/10/26 09:29:11;;;;;;;1.93;1.50;;;;;;;13.82;87.56;100770.50;5038811;28;20234;-79
2022/10/26 09:31:40;;;;;;;1.70;1.23;;;;;;;13.94;88.84;100774.56;5035807;28;20227;-80
2022/10/26 09:34:12;;;;;;;4.23;1.80;;;;;;;13.92;87.79;100789.47;5037330;28;20210;-79
2022/10/26 09:36:38;;;;;;;1.57;1.00;;;;;;;13.97;87.96;100787.56;5039295;28;20210;-79
2022/10/26 09:39:15;;;;;;;3.53;1.33;;;;;;;14.01;86.86;100815.44;5037753;28;20229;-79
2022/10/26 09:41:48;;;;;;;1.63;1.40;;;;;;;14.15;87.37;100809.81;5037147;28;20241;-79
2022/10/26 09:44:25;;;;;;;3.10;1.20;;;;;;;14.18;87.00;100818.47;5038572;28;20215;-79
2022/10/26 09:46:57;;;;;;;4.10;1.50;;;;;;;14.25;87.27;100811.28;5038033;28;20253;-79
2022/10/26 09:49:30;;;;;;;1.97;1.10;;;;;;;14.35;88.80;100777.75;5037171;28;20226;-79
2022/10/26 09:51:56;;;;;;;3.97;1.10;;;;;;;14.36;87.00;100780.34;5037085;28;20299;-79
2022/10/26 09:54:23;;;;;;;2.40;1.20;;;;;;;14.49;87.42;100794.00;5038244;28;20215;-80
2022/10/26 09:56:55;;;;;;;2.63;1.33;;;;;;;14.59;89.51;100756.06;5039184;28;20211;-79
2022/10/26 09:59:24;;;;;;;5.47;1.40;;;;;;;14.73;90.47;100702.19;5038329;28;20689;-78
2022/10/26 10:01:50;;;;;;;2.27;1.80;;;;;;;14.91;90.58;100685.84;5038053;28;20203;-79
2022/10/26 10:04:20;;;;;;;4.03;1.87;;;;;;;15.03;90.84;100672.28;5038645;28;20218;-80
2022/10/26 10:06:48;;;;;;;3.97;2.13;;;;;;;14.99;90.48;100677.72;5039594;28;20212;-79
2022/10/26 10:09:16;;;;;;;3.13;1.80;;;;;;;15.04;90.67;100665.25;5038337;28;20213;-78
2022/10/26 10:11:46;;;;;;;2.53;1.40;;;;;;;15.19;90.44;100672.63;5038326;28;20224;-78
2022/10/26 10:14:17;;;;;;;2.30;1.53;;;;;;;15.12;92.35;100647.44;5038143;28;20234;-79
2022/10/26 10:16:51;;;;;;;1.97;1.60;;;;;;;15.24;92.78;100614.59;5037683;28;20741;-79
2022/10/26 10:19:23;;;;;;;4.87;1.70;;;;;;;15.35;93.68;100580.03;5036804;28;20207;-79
2022/10/26 10:21:52;;;;;;;1.93;1.27;;;;;;;15.42;93.85;100577.13;5038166;28;20224;-79
2022/10/26 10:24:27;;;;;;;4.37;1.87;;;;;;;15.54;93.00;100596.00;5038512;28;20216;-80
2022/10/26 10:26:59;;;;;;;1.43;1.10;;;;;;;15.59;91.80;100633.53;5036518;28;20216;-78
2022/10/26 10:29:28;;;;;;;2.67;1.37;;;;;;;15.64;89.32;100685.09;5037979;28;20208;-80
2022/10/26 10:31:59;;;;;;;2.90;1.10;;;;;;;15.62;86.76;100767.63;5038631;28;20823;-78
2022/10/26 10:34:26;;;;;;;3.10;1.30;;;;;;;15.71;87.02;100785.72;5039121;28;20204;-80
2022/10/26 10:36:54;;;;;;;2.60;1.43;;;;;;;15.85;87.92;100770.31;5037473;28;20683;-79
2022/10/26 10:39:41;;;;;;;2.20;1.63;;;;;;;15.89;87.17;100778.97;5041259;28;20207;-79
2022/10/26 10:42:18;;;;;;;2.00;1.30;;;;;;;15.94;88.19;100770.94;5037875;28;20203;-78
2022/10/26 10:44:50;;;;;;;3.83;1.63;;;;;;;15.95;87.62;100768.22;5039972;28;20211;-80
2022/10/26 10:47:22;;;;;;;2.23;1.20;;;;;;;15.92;88.46;100749.06;5039851;28;20209;-80
2022/10/26 10:49:55;;;;;;;2.80;1.30;;;;;;;15.87;88.01;100746.59;5040224;28;20228;-79
2022/10/26 10:52:25;;;;;;;2.00;1.20;;;;;;;15.92;87.17;100763.09;5038381;28;20268;-79
2022/10/26 10:54:59;;;;;;;2.27;1.37;;;;;;;15.93;86.24;100777.94;5038999;28;20212;-80
2022/10/26 10:57:36;;;;;;;2.80;1.10;;;;;;;15.92;84.45;100843.84;5037804;28;20213;-78
2022/10/26 11:00:05;;;;;;;1.53;0.90;;;;;;;16.03;83.89;100858.34;5019816;28;20235;-77
2022/10/26 11:03:04;;;;;;;1.60;1.17;;;;;;;16.17;84.64;100857.84;5002381;28;20199;-77
2022/10/26 11:05:55;;;;;;;1.87;1.20;;;;;;;16.26;84.60;100854.03;5007426;28;20277;-78
2022/10/26 11:08:28;;;;;;;2.57;1.43;;;;;;;16.23;84.15;100860.28;5005778;28;20198;-78
2022/10/26 11:11:01;;;;;;;1.77;1.20;;;;;;;16.37;85.16;100841.34;5015918;28;20229;-79
2022/10/26 11:13:35;;;;;;;1.20;1.10;;;;;;;16.39;86.09;100818.44;5016211;28;20221;-79
2022/10/26 11:16:06;;;;;;;1.50;1.00;;;;;;;16.56;86.27;100791.44;5019122;28;20204;-78
2022/10/26 11:18:36;;;;;;;2.30;1.20;;;;;;;16.61;84.38;100836.06;5018610;28;20214;-79
2022/10/26 11:21:13;;;;;;;2.53;1.27;;;;;;;16.71;83.70;100871.72;5016277;28;20234;-78
2022/10/26 11:23:46;;;;;;;3.00;1.20;;;;;;;16.84;83.45;100872.13;5016758;28;20214;-79
2022/10/26 11:26:19;;;;;;;3.93;1.10;;;;;;;16.87;80.96;100924.78;5016319;28;20212;-79
2022/10/26 11:28:52;;;;;;;3.77;1.00;;;;;;;16.91;79.03;101005.50;5015545;28;20207;-79
2022/10/26 11:31:26;;;;;;;3.17;1.00;;;;;;;17.04;78.83;101005.88;5015660;28;20707;-78
2022/10/26 11:34:10;;;;;;;1.73;1.10;;;;;;;17.19;80.23;101002.69;5018188;28;20229;-80
2022/10/26 11:36:40;;;;;;;1.73;1.30;;;;;;;17.26;81.01;100969.00;5017083;28;20206;-79